sensor_id;sensor_type;location;lat;lon;timestamp;temperature;humidity
29731;DHT22;16639;51.488;0.152;2022-09-12T00:02:08;16.40;99.90
29731;DHT22;16639;51.488;0.152;2022-09-12T00:04:35;16.40;99.90
29731;DHT22;16639;51.488;0.152;2022-09-12T00:07:02;16.40;99.90
29731;DHT22;16639;51.488;0.152;2022-09-12T00:09:29;16.40;99.90
29731;DHT22;16639;51.488;0.152;2022-09-12T00:11:57;16.30;99.90
29731;DHT22;16639;51.488;0.152;2022-09-12T00:14:24;16.50;99.90
29731;DHT22;16639;51.488;0.152;2022-09-12T00:16:51;16.40;99.90
29731;DHT22;16639;51.488;0.152;2022-09-12T00:19:19;16.60;99.90
29731;DHT22;16639;51.488;0.152;2022-09-12T00:21:46;16.30;99.90
29731;DHT22;16639;51.488;0.152;2022-09-12T00:24:13;16.20;99.90
29731;DHT22;16639;51.488;0.152;2022-09-12T00:26:40;16.30;99.90
29731;DHT22;16639;51.488;0.152;2022-09-12T00:29:09;16.30;99.90
29731;DHT22;16639;51.488;0.152;2022-09-12T00:31:38;16.30;99.90
29731;DHT22;16639;51.488;0.152;2022-09-12T00:34:06;16.30;99.90
29731;DHT22;16639;51.488;0.152;2022-09-12T00:36:34;16.20;99.90
29731;DHT22;16639;51.488;0.152;2022-09-12T00:39:02;16.20;99.90
29731;DHT22;16639;51.488;0.152;2022-09-12T00:41:37;16.20;99.90
29731;DHT22;16639;51.488;0.152;2022-09-12T00:52:05;16.20;99.90
29731;DHT22;16639;51.488;0.152;2022-09-12T00:54:35;16.20;99.90
29731;DHT22;16639;51.488;0.152;2022-09-12T00:57:05;16.10;99.90
29731;DHT22;16639;51.488;0.152;2022-09-12T00:59:40;16.20;99.90
29731;DHT22;16639;51.488;0.152;2022-09-12T01:02:08;15.70;99.90
29731;DHT22;16639;51.488;0.152;2022-09-12T01:04:36;16.10;99.90
29731;DHT22;16639;51.488;0.152;2022-09-12T01:07:04;16.10;99.90
29731;DHT22;16639;51.488;0.152;2022-09-12T01:09:32;16.10;99.90
29731;DHT22;16639;51.488;0.152;2022-09-12T01:11:59;16.10;99.90
29731;DHT22;16639;51.488;0.152;2022-09-12T01:14:28;16.10;99.90
29731;DHT22;16639;51.488;0.152;2022-09-12T01:16:55;16.10;99.90
29731;DHT22;16639;51.488;0.152;2022-09-12T01:38:34;16.20;99.90
29731;DHT22;16639;51.488;0.152;2022-09-12T01:40:42;16.20;99.90
29731;DHT22;16639;51.488;0.152;2022-09-12T01:43:27;16.30;99.90
29731;DHT22;16639;51.488;0.152;2022-09-12T01:48:38;16.30;99.90
29731;DHT22;16639;51.488;0.152;2022-09-12T01:53:41;16.20;99.90
29731;DHT22;16639;51.488;0.152;2022-09-12T01:58:41;16.30;99.90
29731;DHT22;16639;51.488;0.152;2022-09-12T02:01:11;16.30;99.90
29731;DHT22;16639;51.488;0.152;2022-09-12T02:06:15;16.30;99.90
29731;DHT22;16639;51.488;0.152;2022-09-12T02:08:52;16.40;99.90
29731;DHT22;16639;51.488;0.152;2022-09-12T02:11:20;16.30;99.90
29731;DHT22;16639;51.488;0.152;2022-09-12T02:16:24;16.40;99.90
29731;DHT22;16639;51.488;0.152;2022-09-12T02:18:56;16.40;99.90
29731;DHT22;16639;51.488;0.152;2022-09-12T02:21:25;16.40;99.90
29731;DHT22;16639;51.488;0.152;2022-09-12T02:23:56;16.40;99.90
29731;DHT22;16639;51.488;0.152;2022-09-12T02:26:28;16.50;99.90
29731;DHT22;16639;51.488;0.152;2022-09-12T02:28:57;16.50;99.90
29731;DHT22;16639;51.488;0.152;2022-09-12T02:39:17;16.50;99.90
29731;DHT22;16639;51.488;0.152;2022-09-12T02:41:49;16.60;99.90
29731;DHT22;16639;51.488;0.152;2022-09-12T02:44:17;16.60;99.90
29731;DHT22;16639;51.488;0.152;2022-09-12T02:46:47;16.60;99.90
29731;DHT22;16639;51.488;0.152;2022-09-12T02:49:16;16.60;99.90
29731;DHT22;16639;51.488;0.152;2022-09-12T02:51:44;16.60;99.90
29731;DHT22;16639;51.488;0.152;2022-09-12T02:54:12;16.60;99.90
29731;DHT22;16639;51.488;0.152;2022-09-12T02:56:41;16.60;99.90
29731;DHT22;16639;51.488;0.152;2022-09-12T02:59:09;16.60;99.90
29731;DHT22;16639;51.488;0.152;2022-09-12T03:10:00;16.60;99.90
29731;DHT22;16639;51.488;0.152;2022-09-12T03:17:38;16.50;99.90
29731;DHT22;16639;51.488;0.152;2022-09-12T03:20:28;16.50;99.90
29731;DHT22;16639;51.488;0.152;2022-09-12T03:22:58;16.50;99.90
29731;DHT22;16639;51.488;0.152;2022-09-12T03:28:12;16.50;99.90
29731;DHT22;16639;51.488;0.152;2022-09-12T03:30:40;16.60;99.90
29731;DHT22;16639;51.488;0.152;2022-09-12T03:33:12;16.50;99.90
29731;DHT22;16639;51.488;0.152;2022-09-12T03:35:40;16.40;99.90
29731;DHT22;16639;51.488;0.152;2022-09-12T03:38:07;16.50;99.90
29731;DHT22;16639;51.488;0.152;2022-09-12T03:40:34;16.40;99.90
29731;DHT22;16639;51.488;0.152;2022-09-12T03:43:02;16.50;99.90
29731;DHT22;16639;51.488;0.152;2022-09-12T03:45:29;16.50;99.90
29731;DHT22;16639;51.488;0.152;2022-09-12T03:47:57;16.40;99.90
29731;DHT22;16639;51.488;0.152;2022-09-12T03:50:24;16.40;99.90
29731;DHT22;16639;51.488;0.152;2022-09-12T03:52:51;16.40;99.90
29731;DHT22;16639;51.488;0.152;2022-09-12T03:55:18;16.50;99.90
29731;DHT22;16639;51.488;0.152;2022-09-12T03:57:46;16.50;99.90
29731;DHT22;16639;51.488;0.152;2022-09-12T04:00:13;16.50;99.90
29731;DHT22;16639;51.488;0.152;2022-09-12T04:02:45;16.50;99.90
29731;DHT22;16639;51.488;0.152;2022-09-12T04:05:13;16.50;99.90
29731;DHT22;16639;51.488;0.152;2022-09-12T04:07:40;16.50;99.90
29731;DHT22;16639;51.488;0.152;2022-09-12T04:10:07;16.50;99.90
29731;DHT22;16639;51.488;0.152;2022-09-12T04:12:35;16.50;99.90
29731;DHT22;16639;51.488;0.152;2022-09-12T04:15:03;16.50;99.90
29731;DHT22;16639;51.488;0.152;2022-09-12T04:17:31;16.50;99.90
29731;DHT22;16639;51.488;0.152;2022-09-12T04:19:58;16.60;99.90
29731;DHT22;16639;51.488;0.152;2022-09-12T04:22:25;16.50;99.90
29731;DHT22;16639;51.488;0.152;2022-09-12T04:24:53;16.60;99.90
29731;DHT22;16639;51.488;0.152;2022-09-12T04:27:20;16.60;99.90
29731;DHT22;16639;51.488;0.152;2022-09-12T04:29:47;16.60;99.90
29731;DHT22;16639;51.488;0.152;2022-09-12T04:32:15;16.60;99.90
29731;DHT22;16639;51.488;0.152;2022-09-12T04:34:42;16.60;99.90
29731;DHT22;16639;51.488;0.152;2022-09-12T04:37:09;16.60;99.90
29731;DHT22;16639;51.488;0.152;2022-09-12T04:39:37;16.60;99.90
29731;DHT22;16639;51.488;0.152;2022-09-12T04:42:05;16.60;99.90
29731;DHT22;16639;51.488;0.152;2022-09-12T04:44:32;16.60;99.90
29731;DHT22;16639;51.488;0.152;2022-09-12T04:46:59;16.60;99.90
29731;DHT22;16639;51.488;0.152;2022-09-12T04:49:27;16.60;99.90
29731;DHT22;16639;51.488;0.152;2022-09-12T04:51:55;16.60;99.90
29731;DHT22;16639;51.488;0.152;2022-09-12T04:54:24;16.60;99.90
29731;DHT22;16639;51.488;0.152;2022-09-12T04:56:51;16.20;99.90
29731;DHT22;16639;51.488;0.152;2022-09-12T04:59:20;16.60;99.90
29731;DHT22;16639;51.488;0.152;2022-09-12T05:01:48;16.60;99.90
29731;DHT22;16639;51.488;0.152;2022-09-12T05:04:18;16.60;99.90
29731;DHT22;16639;51.488;0.152;2022-09-12T05:06:45;16.60;99.90
29731;DHT22;16639;51.488;0.152;2022-09-12T05:09:13;16.60;99.90
29731;DHT22;16639;51.488;0.152;2022-09-12T05:11:41;16.60;99.90
29731;DHT22;16639;51.488;0.152;2022-09-12T05:14:29;16.60;99.90
29731;DHT22;16639;51.488;0.152;2022-09-12T05:16:58;16.60;99.90
29731;DHT22;16639;51.488;0.152;2022-09-12T05:19:28;16.60;99.90
29731;DHT22;16639;51.488;0.152;2022-09-12T05:21:56;16.60;99.90
29731;DHT22;16639;51.488;0.152;2022-09-12T05:24:23;16.60;99.90
29731;DHT22;16639;51.488;0.152;2022-09-12T05:26:51;16.60;99.90
29731;DHT22;16639;51.488;0.152;2022-09-12T05:29:18;16.60;99.90
29731;DHT22;16639;51.488;0.152;2022-09-12T05:31:45;16.60;99.90
29731;DHT22;16639;51.488;0.152;2022-09-12T05:34:18;16.60;99.90
29731;DHT22;16639;51.488;0.152;2022-09-12T05:36:46;16.60;99.90
29731;DHT22;16639;51.488;0.152;2022-09-12T05:39:13;16.60;99.90
29731;DHT22;16639;51.488;0.152;2022-09-12T05:41:41;16.70;99.90
29731;DHT22;16639;51.488;0.152;2022-09-12T05:44:10;16.60;99.90
29731;DHT22;16639;51.488;0.152;2022-09-12T05:46:38;16.60;99.90
29731;DHT22;16639;51.488;0.152;2022-09-12T05:49:10;16.60;99.90
29731;DHT22;16639;51.488;0.152;2022-09-12T05:51:39;16.50;99.90
29731;DHT22;16639;51.488;0.152;2022-09-12T05:54:08;16.60;99.90
29731;DHT22;16639;51.488;0.152;2022-09-12T05:56:37;16.60;99.90
29731;DHT22;16639;51.488;0.152;2022-09-12T05:59:06;16.60;99.90
29731;DHT22;16639;51.488;0.152;2022-09-12T06:01:34;16.60;99.90
29731;DHT22;16639;51.488;0.152;2022-09-12T06:04:02;16.70;99.90
29731;DHT22;16639;51.488;0.152;2022-09-12T06:06:30;16.70;99.90
29731;DHT22;16639;51.488;0.152;2022-09-12T06:08:59;16.70;99.90
29731;DHT22;16639;51.488;0.152;2022-09-12T06:11:28;16.70;99.90
29731;DHT22;16639;51.488;0.152;2022-09-12T06:13:56;16.70;99.90
29731;DHT22;16639;51.488;0.152;2022-09-12T06:16:25;16.80;99.90
29731;DHT22;16639;51.488;0.152;2022-09-12T06:18:53;16.80;99.90
29731;DHT22;16639;51.488;0.152;2022-09-12T06:21:21;16.70;99.90
29731;DHT22;16639;51.488;0.152;2022-09-12T06:23:48;16.80;99.90
29731;DHT22;16639;51.488;0.152;2022-09-12T06:26:16;16.80;99.90
29731;DHT22;16639;51.488;0.152;2022-09-12T06:28:45;16.80;99.90
29731;DHT22;16639;51.488;0.152;2022-09-12T06:31:14;16.80;99.90
29731;DHT22;16639;51.488;0.152;2022-09-12T06:33:42;16.90;99.90
29731;DHT22;16639;51.488;0.152;2022-09-12T06:38:57;16.90;99.90
29731;DHT22;16639;51.488;0.152;2022-09-12T06:41:25;16.90;99.90
29731;DHT22;16639;51.488;0.152;2022-09-12T06:43:53;16.90;99.90
29731;DHT22;16639;51.488;0.152;2022-09-12T06:46:20;17.00;99.90
29731;DHT22;16639;51.488;0.152;2022-09-12T06:48:48;17.00;99.90
29731;DHT22;16639;51.488;0.152;2022-09-12T06:51:16;17.00;99.90
29731;DHT22;16639;51.488;0.152;2022-09-12T06:53:44;17.10;99.90
29731;DHT22;16639;51.488;0.152;2022-09-12T06:56:18;17.20;99.90
29731;DHT22;16639;51.488;0.152;2022-09-12T06:58:47;17.30;99.90
29731;DHT22;16639;51.488;0.152;2022-09-12T07:01:22;17.40;99.90
29731;DHT22;16639;51.488;0.152;2022-09-12T07:03:51;17.40;99.90
29731;DHT22;16639;51.488;0.152;2022-09-12T07:06:20;17.50;99.90
29731;DHT22;16639;51.488;0.152;2022-09-12T07:08:47;17.50;99.90
29731;DHT22;16639;51.488;0.152;2022-09-12T07:11:18;17.50;99.90
29731;DHT22;16639;51.488;0.152;2022-09-12T07:13:46;17.60;99.90
29731;DHT22;16639;51.488;0.152;2022-09-12T07:16:15;17.70;99.90
29731;DHT22;16639;51.488;0.152;2022-09-12T07:18:49;17.70;99.90
29731;DHT22;16639;51.488;0.152;2022-09-12T07:21:17;17.70;99.90
29731;DHT22;16639;51.488;0.152;2022-09-12T07:23:44;17.80;99.90
29731;DHT22;16639;51.488;0.152;2022-09-12T07:26:13;17.80;99.90
29731;DHT22;16639;51.488;0.152;2022-09-12T07:28:40;17.90;99.90
29731;DHT22;16639;51.488;0.152;2022-09-12T07:31:09;17.90;99.90
29731;DHT22;16639;51.488;0.152;2022-09-12T07:33:37;18.00;99.90
29731;DHT22;16639;51.488;0.152;2022-09-12T07:36:07;18.00;99.90
29731;DHT22;16639;51.488;0.152;2022-09-12T07:38:34;18.00;99.90
29731;DHT22;16639;51.488;0.152;2022-09-12T07:41:12;18.50;99.90
29731;DHT22;16639;51.488;0.152;2022-09-12T07:43:42;18.20;99.90
29731;DHT22;16639;51.488;0.152;2022-09-12T07:46:10;18.20;99.90
29731;DHT22;16639;51.488;0.152;2022-09-12T07:48:37;18.20;99.90
29731;DHT22;16639;51.488;0.152;2022-09-12T07:51:05;18.30;99.90
29731;DHT22;16639;51.488;0.152;2022-09-12T07:53:34;19.60;99.90
29731;DHT22;16639;51.488;0.152;2022-09-12T07:56:03;18.40;99.90
29731;DHT22;16639;51.488;0.152;2022-09-12T07:58:32;18.50;99.90
29731;DHT22;16639;51.488;0.152;2022-09-12T08:01:04;18.40;99.90
29731;DHT22;16639;51.488;0.152;2022-09-12T08:03:31;18.50;99.90
29731;DHT22;16639;51.488;0.152;2022-09-12T08:08:32;18.60;99.90
29731;DHT22;16639;51.488;0.152;2022-09-12T08:11:03;18.60;99.90
29731;DHT22;16639;51.488;0.152;2022-09-12T08:13:32;19.20;99.90
29731;DHT22;16639;51.488;0.152;2022-09-12T08:16:01;18.70;99.90
29731;DHT22;16639;51.488;0.152;2022-09-12T08:18:29;18.80;99.90
29731;DHT22;16639;51.488;0.152;2022-09-12T08:23:51;18.80;99.90
29731;DHT22;16639;51.488;0.152;2022-09-12T08:26:18;18.90;99.90
29731;DHT22;16639;51.488;0.152;2022-09-12T08:28:47;18.90;99.90
29731;DHT22;16639;51.488;0.152;2022-09-12T08:31:15;18.90;99.90
29731;DHT22;16639;51.488;0.152;2022-09-12T08:33:43;18.80;99.90
29731;DHT22;16639;51.488;0.152;2022-09-12T08:38:57;18.90;99.90
29731;DHT22;16639;51.488;0.152;2022-09-12T08:41:30;18.90;99.90
29731;DHT22;16639;51.488;0.152;2022-09-12T08:46:39;18.80;99.90
29731;DHT22;16639;51.488;0.152;2022-09-12T08:49:11;18.90;99.90
29731;DHT22;16639;51.488;0.152;2022-09-12T08:51:39;18.90;99.90
29731;DHT22;16639;51.488;0.152;2022-09-12T08:54:11;18.90;99.90
29731;DHT22;16639;51.488;0.152;2022-09-12T08:56:46;19.00;99.90
29731;DHT22;16639;51.488;0.152;2022-09-12T08:59:14;19.10;99.90
29731;DHT22;16639;51.488;0.152;2022-09-12T09:01:42;19.20;99.90
29731;DHT22;16639;51.488;0.152;2022-09-12T09:09:33;19.50;99.90
29731;DHT22;16639;51.488;0.152;2022-09-12T09:14:50;19.70;99.90
29731;DHT22;16639;51.488;0.152;2022-09-12T09:20:21;19.90;99.90
29731;DHT22;16639;51.488;0.152;2022-09-12T09:22:46;19.90;99.90
29731;DHT22;16639;51.488;0.152;2022-09-12T09:25:21;20.90;99.90
29731;DHT22;16639;51.488;0.152;2022-09-12T09:27:55;20.00;99.90
29731;DHT22;16639;51.488;0.152;2022-09-12T09:30:24;20.20;99.90
29731;DHT22;16639;51.488;0.152;2022-09-12T09:32:55;20.10;99.90
29731;DHT22;16639;51.488;0.152;2022-09-12T09:37:58;20.10;99.90
29731;DHT22;16639;51.488;0.152;2022-09-12T09:40:36;20.20;99.90
29731;DHT22;16639;51.488;0.152;2022-09-12T09:43:16;20.20;99.90
29731;DHT22;16639;51.488;0.152;2022-09-12T09:45:45;20.20;99.90
29731;DHT22;16639;51.488;0.152;2022-09-12T09:48:33;20.90;99.90
29731;DHT22;16639;51.488;0.152;2022-09-12T09:51:02;20.30;99.90
29731;DHT22;16639;51.488;0.152;2022-09-12T09:53:42;20.50;99.90
29731;DHT22;16639;51.488;0.152;2022-09-12T09:58:52;20.50;99.90
29731;DHT22;16639;51.488;0.152;2022-09-12T10:01:19;20.50;99.90
29731;DHT22;16639;51.488;0.152;2022-09-12T10:03:51;20.50;99.90
29731;DHT22;16639;51.488;0.152;2022-09-12T10:08:46;20.40;99.90
29731;DHT22;16639;51.488;0.152;2022-09-12T10:11:19;20.40;99.90
29731;DHT22;16639;51.488;0.152;2022-09-12T10:13:52;20.30;99.90
29731;DHT22;16639;51.488;0.152;2022-09-12T10:16:30;20.20;99.90
29731;DHT22;16639;51.488;0.152;2022-09-12T10:18:58;20.20;99.90
29731;DHT22;16639;51.488;0.152;2022-09-12T10:24:01;20.20;99.90
29731;DHT22;16639;51.488;0.152;2022-09-12T10:26:31;20.20;99.90
29731;DHT22;16639;51.488;0.152;2022-09-12T10:29:01;20.20;99.90
29731;DHT22;16639;51.488;0.152;2022-09-12T10:31:34;20.20;99.90
29731;DHT22;16639;51.488;0.152;2022-09-12T10:34:05;20.30;99.90
29731;DHT22;16639;51.488;0.152;2022-09-12T10:36:35;20.30;99.90
29731;DHT22;16639;51.488;0.152;2022-09-12T10:39:03;20.40;99.90
29731;DHT22;16639;51.488;0.152;2022-09-12T10:41:34;20.50;99.90
29731;DHT22;16639;51.488;0.152;2022-09-12T10:44:16;20.60;99.90
29731;DHT22;16639;51.488;0.152;2022-09-12T10:46:44;20.70;99.90
29731;DHT22;16639;51.488;0.152;2022-09-12T10:49:12;20.80;99.90
29731;DHT22;16639;51.488;0.152;2022-09-12T10:51:40;20.90;99.90
29731;DHT22;16639;51.488;0.152;2022-09-12T10:54:08;20.90;99.90
29731;DHT22;16639;51.488;0.152;2022-09-12T10:59:29;21.10;99.90
29731;DHT22;16639;51.488;0.152;2022-09-12T11:02:13;21.20;99.90
29731;DHT22;16639;51.488;0.152;2022-09-12T11:12:41;21.50;99.90
29731;DHT22;16639;51.488;0.152;2022-09-12T11:15:32;21.60;99.90
29731;DHT22;16639;51.488;0.152;2022-09-12T11:39:12;22.00;99.90
29731;DHT22;16639;51.488;0.152;2022-09-12T11:41:44;22.10;99.90
29731;DHT22;16639;51.488;0.152;2022-09-12T11:46:45;22.20;99.90
29731;DHT22;16639;51.488;0.152;2022-09-12T11:55:03;22.20;99.90
29731;DHT22;16639;51.488;0.152;2022-09-12T11:57:51;22.20;99.90
29731;DHT22;16639;51.488;0.152;2022-09-12T12:07:42;22.40;99.90
29731;DHT22;16639;51.488;0.152;2022-09-12T12:10:21;22.50;99.90
29731;DHT22;16639;51.488;0.152;2022-09-12T12:12:51;22.50;99.90
29731;DHT22;16639;51.488;0.152;2022-09-12T12:15:19;22.50;99.90
29731;DHT22;16639;51.488;0.152;2022-09-12T12:20:35;22.40;99.90
29731;DHT22;16639;51.488;0.152;2022-09-12T12:23:03;22.60;99.90
29731;DHT22;16639;51.488;0.152;2022-09-12T12:25:37;22.30;99.90
29731;DHT22;16639;51.488;0.152;2022-09-12T12:28:06;22.20;99.90
29731;DHT22;16639;51.488;0.152;2022-09-12T12:35:44;22.30;99.90
29731;DHT22;16639;51.488;0.152;2022-09-12T12:38:28;22.30;99.90
29731;DHT22;16639;51.488;0.152;2022-09-12T12:43:43;22.30;99.90
29731;DHT22;16639;51.488;0.152;2022-09-12T12:46:11;22.30;99.90
29731;DHT22;16639;51.488;0.152;2022-09-12T12:51:26;22.30;99.90
29731;DHT22;16639;51.488;0.152;2022-09-12T12:53:54;22.30;99.90
29731;DHT22;16639;51.488;0.152;2022-09-12T12:58:59;22.40;99.90
29731;DHT22;16639;51.488;0.152;2022-09-12T13:01:27;22.40;99.90
29731;DHT22;16639;51.488;0.152;2022-09-12T13:03:59;22.40;99.90
29731;DHT22;16639;51.488;0.152;2022-09-12T13:06:41;22.40;99.90
29731;DHT22;16639;51.488;0.152;2022-09-12T13:11:37;22.60;99.90
29731;DHT22;16639;51.488;0.152;2022-09-12T13:14:06;22.50;99.90
29731;DHT22;16639;51.488;0.152;2022-09-12T13:16:36;22.50;99.90
29731;DHT22;16639;51.488;0.152;2022-09-12T13:19:10;22.50;99.90
29731;DHT22;16639;51.488;0.152;2022-09-12T13:22:00;22.60;99.90
29731;DHT22;16639;51.488;0.152;2022-09-12T13:24:28;22.60;99.90
29731;DHT22;16639;51.488;0.152;2022-09-12T13:26:56;22.60;99.90
29731;DHT22;16639;51.488;0.152;2022-09-12T13:29:26;22.50;99.90
29731;DHT22;16639;51.488;0.152;2022-09-12T13:31:59;23.10;99.90
29731;DHT22;16639;51.488;0.152;2022-09-12T13:34:30;22.50;99.90
29731;DHT22;16639;51.488;0.152;2022-09-12T13:39:48;22.40;99.90
29731;DHT22;16639;51.488;0.152;2022-09-12T13:47:45;23.00;99.90
29731;DHT22;16639;51.488;0.152;2022-09-12T13:50:18;22.40;99.90
29731;DHT22;16639;51.488;0.152;2022-09-12T13:52:54;22.30;99.90
29731;DHT22;16639;51.488;0.152;2022-09-12T13:55:33;22.40;99.90
29731;DHT22;16639;51.488;0.152;2022-09-12T13:58:06;22.40;99.90
29731;DHT22;16639;51.488;0.152;2022-09-12T14:00:33;22.40;99.90
29731;DHT22;16639;51.488;0.152;2022-09-12T14:03:01;22.40;99.90
29731;DHT22;16639;51.488;0.152;2022-09-12T14:05:57;22.40;99.90
29731;DHT22;16639;51.488;0.152;2022-09-12T14:08:25;22.40;99.90
29731;DHT22;16639;51.488;0.152;2022-09-12T14:10:53;22.50;99.90
29731;DHT22;16639;51.488;0.152;2022-09-12T14:13:22;22.60;99.90
29731;DHT22;16639;51.488;0.152;2022-09-12T14:15:50;22.70;99.90
29731;DHT22;16639;51.488;0.152;2022-09-12T14:20:49;22.80;99.90
29731;DHT22;16639;51.488;0.152;2022-09-12T14:23:29;22.80;99.90
29731;DHT22;16639;51.488;0.152;2022-09-12T14:25:57;22.80;99.90
29731;DHT22;16639;51.488;0.152;2022-09-12T14:28:25;22.90;99.90
29731;DHT22;16639;51.488;0.152;2022-09-12T14:33:53;22.80;99.90
29731;DHT22;16639;51.488;0.152;2022-09-12T14:36:33;22.80;99.90
29731;DHT22;16639;51.488;0.152;2022-09-12T14:39:02;22.70;99.90
29731;DHT22;16639;51.488;0.152;2022-09-12T14:41:35;22.70;99.90
29731;DHT22;16639;51.488;0.152;2022-09-12T14:44:05;23.40;99.90
29731;DHT22;16639;51.488;0.152;2022-09-12T14:46:35;22.70;99.90
29731;DHT22;16639;51.488;0.152;2022-09-12T14:49:06;22.70;99.90
29731;DHT22;16639;51.488;0.152;2022-09-12T14:56:54;22.80;99.90
29731;DHT22;16639;51.488;0.152;2022-09-12T15:04:42;22.90;99.90
29731;DHT22;16639;51.488;0.152;2022-09-12T15:07:20;22.90;99.90
29731;DHT22;16639;51.488;0.152;2022-09-12T15:09:50;22.90;99.90
29731;DHT22;16639;51.488;0.152;2022-09-12T15:12:18;22.90;99.90
29731;DHT22;16639;51.488;0.152;2022-09-12T15:14:47;23.00;99.90
29731;DHT22;16639;51.488;0.152;2022-09-12T15:17:22;22.90;99.90
29731;DHT22;16639;51.488;0.152;2022-09-12T15:19:49;23.00;99.90
29731;DHT22;16639;51.488;0.152;2022-09-12T15:22:16;22.90;99.90
29731;DHT22;16639;51.488;0.152;2022-09-12T15:24:43;22.90;99.90
29731;DHT22;16639;51.488;0.152;2022-09-12T15:27:11;22.90;99.90
29731;DHT22;16639;51.488;0.152;2022-09-12T15:29:38;22.90;99.90
29731;DHT22;16639;51.488;0.152;2022-09-12T15:32:05;22.80;99.90
29731;DHT22;16639;51.488;0.152;2022-09-12T15:34:38;22.80;99.90
29731;DHT22;16639;51.488;0.152;2022-09-12T15:37:11;22.80;99.90
29731;DHT22;16639;51.488;0.152;2022-09-12T15:39:40;22.80;99.90
29731;DHT22;16639;51.488;0.152;2022-09-12T15:42:08;22.80;99.90
29731;DHT22;16639;51.488;0.152;2022-09-12T15:44:35;22.80;99.90
29731;DHT22;16639;51.488;0.152;2022-09-12T15:47:02;22.80;99.90
29731;DHT22;16639;51.488;0.152;2022-09-12T15:49:30;22.80;99.90
29731;DHT22;16639;51.488;0.152;2022-09-12T15:51:58;22.80;99.90
29731;DHT22;16639;51.488;0.152;2022-09-12T15:54:25;22.70;99.90
29731;DHT22;16639;51.488;0.152;2022-09-12T15:56:52;22.70;99.90
29731;DHT22;16639;51.488;0.152;2022-09-12T15:59:19;22.70;99.90
29731;DHT22;16639;51.488;0.152;2022-09-12T16:01:47;22.70;99.90
29731;DHT22;16639;51.488;0.152;2022-09-12T16:04:22;22.70;99.90
29731;DHT22;16639;51.488;0.152;2022-09-12T16:06:50;22.60;99.90
29731;DHT22;16639;51.488;0.152;2022-09-12T16:09:17;22.60;99.90
29731;DHT22;16639;51.488;0.152;2022-09-12T16:11:45;22.60;99.90
29731;DHT22;16639;51.488;0.152;2022-09-12T16:14:13;22.60;99.90
29731;DHT22;16639;51.488;0.152;2022-09-12T16:16:40;22.50;99.90
29731;DHT22;16639;51.488;0.152;2022-09-12T16:19:08;22.40;99.90
29731;DHT22;16639;51.488;0.152;2022-09-12T16:21:36;22.40;99.90
29731;DHT22;16639;51.488;0.152;2022-09-12T16:24:04;22.40;99.90
29731;DHT22;16639;51.488;0.152;2022-09-12T16:26:32;22.30;99.90
29731;DHT22;16639;51.488;0.152;2022-09-12T16:29:00;22.30;99.90
29731;DHT22;16639;51.488;0.152;2022-09-12T16:31:27;22.30;99.90
29731;DHT22;16639;51.488;0.152;2022-09-12T16:33:55;22.30;99.90
29731;DHT22;16639;51.488;0.152;2022-09-12T16:36:22;22.30;99.90
29731;DHT22;16639;51.488;0.152;2022-09-12T16:38:50;22.30;99.90
29731;DHT22;16639;51.488;0.152;2022-09-12T16:41:18;22.30;99.90
29731;DHT22;16639;51.488;0.152;2022-09-12T16:43:46;22.20;99.90
29731;DHT22;16639;51.488;0.152;2022-09-12T16:46:16;22.30;99.90
29731;DHT22;16639;51.488;0.152;2022-09-12T16:48:44;22.20;99.90
29731;DHT22;16639;51.488;0.152;2022-09-12T16:51:19;22.20;99.90
29731;DHT22;16639;51.488;0.152;2022-09-12T16:53:47;22.20;99.90
29731;DHT22;16639;51.488;0.152;2022-09-12T16:56:16;22.30;99.90
29731;DHT22;16639;51.488;0.152;2022-09-12T16:58:43;21.70;99.90
29731;DHT22;16639;51.488;0.152;2022-09-12T17:01:15;22.30;99.90
29731;DHT22;16639;51.488;0.152;2022-09-12T17:03:43;22.30;99.90
29731;DHT22;16639;51.488;0.152;2022-09-12T17:06:11;22.30;99.90
29731;DHT22;16639;51.488;0.152;2022-09-12T17:08:40;22.20;99.90
29731;DHT22;16639;51.488;0.152;2022-09-12T17:11:10;22.20;99.90
29731;DHT22;16639;51.488;0.152;2022-09-12T17:13:37;22.10;99.90
29731;DHT22;16639;51.488;0.152;2022-09-12T17:16:25;22.20;99.90
29731;DHT22;16639;51.488;0.152;2022-09-12T17:18:52;22.00;99.90
29731;DHT22;16639;51.488;0.152;2022-09-12T17:21:20;22.00;99.90
29731;DHT22;16639;51.488;0.152;2022-09-12T17:23:47;21.90;99.90
29731;DHT22;16639;51.488;0.152;2022-09-12T17:26:15;21.80;99.90
29731;DHT22;16639;51.488;0.152;2022-09-12T17:28:50;21.70;99.90
29731;DHT22;16639;51.488;0.152;2022-09-12T17:31:17;21.70;99.90
29731;DHT22;16639;51.488;0.152;2022-09-12T17:33:44;21.60;99.90
29731;DHT22;16639;51.488;0.152;2022-09-12T17:36:14;21.60;99.90
29731;DHT22;16639;51.488;0.152;2022-09-12T17:38:42;21.60;99.90
29731;DHT22;16639;51.488;0.152;2022-09-12T17:43:39;21.50;99.90
29731;DHT22;16639;51.488;0.152;2022-09-12T17:46:08;21.40;99.90
29731;DHT22;16639;51.488;0.152;2022-09-12T17:48:35;22.70;99.90
29731;DHT22;16639;51.488;0.152;2022-09-12T17:51:09;21.40;99.90
29731;DHT22;16639;51.488;0.152;2022-09-12T17:53:40;21.40;99.90
29731;DHT22;16639;51.488;0.152;2022-09-12T17:56:08;21.40;99.90
29731;DHT22;16639;51.488;0.152;2022-09-12T17:58:36;21.40;99.90
29731;DHT22;16639;51.488;0.152;2022-09-12T18:01:05;21.30;99.90
29731;DHT22;16639;51.488;0.152;2022-09-12T18:03:55;21.30;99.90
29731;DHT22;16639;51.488;0.152;2022-09-12T18:06:22;21.40;99.90
29731;DHT22;16639;51.488;0.152;2022-09-12T18:08:50;21.30;99.90
29731;DHT22;16639;51.488;0.152;2022-09-12T18:11:17;21.20;99.90
29731;DHT22;16639;51.488;0.152;2022-09-12T18:13:45;21.20;99.90
29731;DHT22;16639;51.488;0.152;2022-09-12T18:16:12;21.20;99.90
29731;DHT22;16639;51.488;0.152;2022-09-12T18:18:44;21.20;99.90
29731;DHT22;16639;51.488;0.152;2022-09-12T18:21:11;21.20;99.90
29731;DHT22;16639;51.488;0.152;2022-09-12T18:23:39;21.10;99.90
29731;DHT22;16639;51.488;0.152;2022-09-12T18:26:08;21.10;99.90
29731;DHT22;16639;51.488;0.152;2022-09-12T18:28:41;21.10;99.90
29731;DHT22;16639;51.488;0.152;2022-09-12T18:31:13;21.10;99.90
29731;DHT22;16639;51.488;0.152;2022-09-12T18:33:41;21.00;99.90
29731;DHT22;16639;51.488;0.152;2022-09-12T18:36:10;21.00;99.90
29731;DHT22;16639;51.488;0.152;2022-09-12T18:38:38;21.00;99.90
29731;DHT22;16639;51.488;0.152;2022-09-12T18:41:07;21.00;99.90
29731;DHT22;16639;51.488;0.152;2022-09-12T18:43:35;20.90;99.90
29731;DHT22;16639;51.488;0.152;2022-09-12T18:46:04;20.90;99.90
29731;DHT22;16639;51.488;0.152;2022-09-12T18:48:32;20.60;99.90
29731;DHT22;16639;51.488;0.152;2022-09-12T18:51:09;20.90;99.90
29731;DHT22;16639;51.488;0.152;2022-09-12T18:53:37;20.90;99.90
29731;DHT22;16639;51.488;0.152;2022-09-12T18:56:08;20.90;99.90
29731;DHT22;16639;51.488;0.152;2022-09-12T18:58:36;20.90;99.90